createdAt,value
2023-04-02T00:01:37.307Z,96280.06
2023-04-02T00:04:14.790Z,96283.31
2023-04-02T00:06:45.303Z,96296.66
2023-04-02T00:09:15.210Z,96292.38
2023-04-02T00:11:45.152Z,96284.56
2023-04-02T00:14:27.426Z,96294.50
2023-04-02T00:16:56.076Z,96303.63
2023-04-02T00:19:42.369Z,96302.44
2023-04-02T00:22:20.562Z,96297.13
2023-04-02T00:24:51.392Z,96292.84
2023-04-02T00:27:18.157Z,96289.78
2023-04-02T00:29:56.260Z,96306.38
2023-04-02T00:32:27.565Z,96307.06
2023-04-02T00:34:55.905Z,96311.59
2023-04-02T00:37:28.190Z,96307.19
2023-04-02T00:40:07.380Z,96302.31
2023-04-02T00:42:36.043Z,96302.88
2023-04-02T00:45:03.381Z,96276.66
2023-04-02T00:47:37.594Z,96313.94
2023-04-02T00:50:14.677Z,96310.66
2023-04-02T00:52:44.835Z,96305.69
2023-04-02T00:55:18.016Z,96311.94
2023-04-02T00:57:45.853Z,96302.44
2023-04-02T01:00:35.849Z,96312.47
2023-04-02T01:03:18.161Z,96313.59
2023-04-02T01:05:51.916Z,96311.34
2023-04-02T01:08:21.514Z,96317.78
2023-04-02T01:10:54.157Z,96325.81
2023-04-02T01:13:35.363Z,96330.13
2023-04-02T01:16:20.962Z,96303.69
2023-04-02T01:19:02.224Z,96330.13
2023-04-02T01:21:53.203Z,96328.53
2023-04-02T01:24:24.726Z,96314.88
2023-04-02T01:26:58.093Z,96333.28
2023-04-02T01:30:05.414Z,96339.84
2023-04-02T01:32:32.471Z,96335.88
2023-04-02T01:34:59.203Z,96337.91
2023-04-02T01:37:37.086Z,96333.97
2023-04-02T01:40:29.477Z,96345.72
2023-04-02T01:43:11.772Z,96342.19
2023-04-02T01:45:38.649Z,96340.63
2023-04-02T01:48:07.458Z,96344.22
2023-04-02T01:50:40.388Z,96351.00
2023-04-02T01:53:10.928Z,96350.22
2023-04-02T01:55:43.574Z,96342.66
2023-04-02T01:58:12.380Z,96337.44
2023-04-02T02:00:49.908Z,96341.28
2023-04-02T02:03:17.620Z,96351.25
2023-04-02T02:05:44.879Z,96335.19
2023-04-02T02:08:24.284Z,96349.22
2023-04-02T02:10:51.040Z,96345.78
2023-04-02T02:13:17.924Z,96330.78
2023-04-02T02:15:48.051Z,96353.03
2023-04-02T02:18:20.215Z,96353.03
2023-04-02T02:20:47.694Z,96350.44
2023-04-02T02:23:15.100Z,96353.16
2023-04-02T02:25:41.984Z,96352.25
2023-04-02T02:28:33.489Z,96357.66
2023-04-02T02:31:07.146Z,96334.16
2023-04-02T02:33:39.390Z,96371.22
2023-04-02T02:36:16.296Z,96346.94
2023-04-02T02:38:54.391Z,96372.59
2023-04-02T02:41:42.921Z,96368.84
2023-04-02T02:44:09.646Z,96368.06
2023-04-02T02:46:51.836Z,96360.06
2023-04-02T02:49:26.871Z,96358.47
2023-04-02T02:52:07.784Z,96344.78
2023-04-02T02:54:36.355Z,96365.56
2023-04-02T02:57:07.798Z,96368.63
2023-04-02T02:59:34.942Z,96377.44
2023-04-02T03:02:04.015Z,96373.91
2023-04-02T03:04:31.031Z,96372.56
2023-04-02T03:06:58.922Z,96368.38
2023-04-02T03:09:34.269Z,96375.84
2023-04-02T03:12:19.437Z,96384.53
2023-04-02T03:15:13.898Z,96382.59
2023-04-02T03:18:11.370Z,96391.41
2023-04-02T03:20:46.924Z,96386.69
2023-04-02T03:23:22.688Z,96393.66
2023-04-02T03:26:11.679Z,96367.81
2023-04-02T03:28:46.806Z,96380.91
2023-04-02T03:31:19.981Z,96398.56
2023-04-02T03:33:53.246Z,96395.38
2023-04-02T03:36:33.268Z,96394.81
2023-04-02T03:39:23.201Z,96395.84
2023-04-02T03:41:52.684Z,96407.09
2023-04-02T03:44:32.027Z,96398.00
2023-04-02T03:47:12.614Z,96400.09
2023-04-02T03:49:53.233Z,96409.16
2023-04-02T03:52:28.543Z,96406.34
2023-04-02T03:54:58.962Z,96406.22
2023-04-02T03:58:07.588Z,96417.94
2023-04-02T04:00:52.616Z,96398.84
2023-04-02T04:03:31.751Z,96423.59
2023-04-02T04:06:18.302Z,96420.91
2023-04-02T04:09:11.166Z,96427.91
2023-04-02T04:11:48.449Z,96432.63
2023-04-02T04:14:20.336Z,96432.41
2023-04-02T04:16:53.947Z,96417.53
2023-04-02T04:19:33.854Z,96435.25
2023-04-02T04:22:34.175Z,96441.47
2023-04-02T04:25:02.545Z,96448.94
2023-04-02T04:27:48.345Z,96446.91
2023-04-02T04:30:24.610Z,96457.41
2023-04-02T04:32:58.764Z,96445.50
2023-04-02T04:35:31.377Z,96459.66
2023-04-02T04:38:07.922Z,96462.03
2023-04-02T04:40:45.828Z,96463.63
2023-04-02T04:43:19.015Z,96463.38
2023-04-02T04:45:54.669Z,96471.03
2023-04-02T04:48:29.761Z,96438.75
2023-04-02T04:51:04.240Z,96468.69
2023-04-02T04:53:31.418Z,96474.19
2023-04-02T04:56:12.533Z,96474.38
2023-04-02T04:58:53.908Z,96474.38
2023-04-02T05:01:28.987Z,96483.16
2023-04-02T05:04:11.559Z,96487.88
2023-04-02T05:06:49.638Z,96486.81
2023-04-02T05:09:29.718Z,96489.63
2023-04-02T05:12:05.383Z,96488.41
2023-04-02T05:14:46.121Z,96480.94
2023-04-02T05:17:23.676Z,96469.22
2023-04-02T05:20:09.890Z,96492.22
2023-04-02T05:22:44.267Z,96487.00
2023-04-02T05:25:31.090Z,96504.22
2023-04-02T05:28:03.928Z,96500.41
2023-04-02T05:30:41.124Z,96507.41
2023-04-02T05:33:28.932Z,96505.94
2023-04-02T05:36:05.590Z,96504.34
2023-04-02T05:38:35.660Z,96480.59
2023-04-02T05:41:07.417Z,96496.91
2023-04-02T05:43:37.287Z,96514.69
2023-04-02T05:46:14.246Z,96470.28
2023-04-02T05:48:43.552Z,96479.59
2023-04-02T05:51:19.069Z,96515.34
2023-04-02T05:53:57.377Z,96519.31
2023-04-02T05:56:40.158Z,96512.75
2023-04-02T05:59:23.269Z,96518.00
2023-04-02T06:02:24.253Z,96526.03
2023-04-02T06:04:58.499Z,96516.13
2023-04-02T06:07:36.422Z,96518.31
2023-04-02T06:10:08.143Z,96501.34
2023-04-02T06:12:46.975Z,96532.41
2023-04-02T06:15:21.492Z,96531.47
2023-04-02T06:17:53.057Z,96520.41
2023-04-02T06:20:21.426Z,96522.72
2023-04-02T06:23:02.971Z,96538.66
2023-04-02T06:25:38.000Z,96543.59
2023-04-02T06:28:07.258Z,96515.56
2023-04-02T06:30:38.134Z,96549.53
2023-04-02T06:33:05.138Z,96555.16
2023-04-02T06:35:35.212Z,96567.84
2023-04-02T06:38:06.175Z,96562.16
2023-04-02T06:40:35.886Z,96568.22
2023-04-02T06:43:13.802Z,96532.69
2023-04-02T06:45:44.256Z,96589.56
2023-04-02T06:48:21.018Z,96554.31
2023-04-02T06:51:07.431Z,96592.41
2023-04-02T06:53:39.244Z,96603.34
2023-04-02T06:56:17.676Z,96606.34
2023-04-02T06:58:44.500Z,96600.84
2023-04-02T07:01:19.915Z,96591.25
2023-04-02T07:03:46.628Z,96625.03
2023-04-02T07:06:20.445Z,96639.22
2023-04-02T07:08:47.378Z,96615.38
2023-04-02T07:11:20.891Z,96636.84
2023-04-02T07:13:49.192Z,96635.25
2023-04-02T07:16:18.149Z,96651.97
2023-04-02T07:18:46.466Z,96670.41
2023-04-02T07:21:13.408Z,96639.88
2023-04-02T07:23:40.611Z,96641.94
2023-04-02T07:26:08.462Z,96643.66
2023-04-02T07:28:35.264Z,96656.22
2023-04-02T07:31:01.981Z,96685.66
2023-04-02T07:33:31.100Z,96651.41
2023-04-02T07:35:58.621Z,96693.91
2023-04-02T07:38:25.628Z,96697.88
2023-04-02T07:40:52.686Z,96714.75
2023-04-02T07:43:21.964Z,96660.03
2023-04-02T07:45:50.794Z,96716.84
2023-04-02T07:48:17.504Z,96718.25
2023-04-02T07:50:44.175Z,96718.81
2023-04-02T07:53:31.935Z,96743.69
2023-04-02T07:56:01.613Z,96749.25
2023-04-02T07:58:29.691Z,96754.47
2023-04-02T08:00:56.676Z,96761.25
2023-04-02T08:03:23.984Z,96747.66
2023-04-02T08:05:58.653Z,96729.66
2023-04-02T08:08:26.122Z,96750.53
2023-04-02T08:10:53.052Z,96763.59
2023-04-02T08:13:19.898Z,96774.28
2023-04-02T08:15:46.683Z,96768.72
2023-04-02T08:18:13.532Z,96771.47
2023-04-02T08:20:40.398Z,96751.09
2023-04-02T08:23:15.492Z,96771.38
2023-04-02T08:25:42.421Z,96783.56
2023-04-02T08:28:09.134Z,96768.25
2023-04-02T08:30:36.026Z,96778.53
2023-04-02T08:33:03.860Z,96795.44
2023-04-02T08:35:30.917Z,96800.50
2023-04-02T08:37:57.540Z,96763.22
2023-04-02T08:40:37.549Z,96804.47
2023-04-02T08:43:38.860Z,96805.66
2023-04-02T08:46:19.214Z,96817.75
2023-04-02T08:48:51.001Z,96812.66
2023-04-02T08:51:26.980Z,96812.25
2023-04-02T08:53:59.945Z,96822.00
2023-04-02T08:56:33.821Z,96808.66
2023-04-02T08:59:09.465Z,96810.03
2023-04-02T09:01:47.426Z,96836.00
2023-04-02T09:04:19.084Z,96830.97
2023-04-02T09:06:47.276Z,96803.94
2023-04-02T09:09:15.737Z,96836.03
2023-04-02T09:12:04.603Z,96827.56
2023-04-02T09:15:09.028Z,96845.16
2023-04-02T09:17:50.607Z,96837.06
2023-04-02T09:20:24.537Z,96812.47
2023-04-02T09:22:53.377Z,96851.78
2023-04-02T09:25:27.573Z,96842.63
2023-04-02T09:27:57.772Z,96848.06
2023-04-02T09:30:24.460Z,96862.81
2023-04-02T09:32:57.171Z,96864.56
2023-04-02T09:35:51.700Z,96872.13
2023-04-02T09:38:29.138Z,96884.41
2023-04-02T09:41:01.652Z,96884.00
2023-04-02T09:43:29.715Z,96883.47
2023-04-02T09:46:06.499Z,96876.59
2023-04-02T09:48:36.388Z,96898.78
2023-04-02T09:51:12.627Z,96881.38
2023-04-02T09:54:13.279Z,96911.22
2023-04-02T09:56:41.494Z,96915.34
2023-04-02T09:59:13.929Z,96923.28
2023-04-02T10:01:44.522Z,96908.09
2023-04-02T10:04:33.915Z,96919.28
2023-04-02T10:07:00.640Z,96927.81
2023-04-02T10:09:38.721Z,96930.00
2023-04-02T10:12:12.527Z,96907.31
2023-04-02T10:14:48.652Z,96936.06
2023-04-02T10:17:32.779Z,96937.00
2023-04-02T10:20:06.708Z,96912.34
2023-04-02T10:22:33.559Z,96948.91
2023-04-02T10:25:00.685Z,96911.84
2023-04-02T10:27:43.710Z,96957.47
2023-04-02T10:30:50.201Z,96959.00
2023-04-02T10:33:36.059Z,96933.28
2023-04-02T10:36:24.372Z,96953.22
2023-04-02T10:38:56.316Z,96960.81
2023-04-02T10:41:29.208Z,96958.31
2023-04-02T10:44:20.490Z,96969.28
2023-04-02T10:47:19.107Z,96980.88
2023-04-02T10:50:19.976Z,96977.88
2023-04-02T10:52:56.543Z,96974.88
2023-04-02T10:55:31.975Z,96965.13
2023-04-02T10:58:06.789Z,96974.06
2023-04-02T11:00:40.857Z,96992.50
2023-04-02T11:03:14.487Z,96980.72
2023-04-02T11:05:44.612Z,96994.72
2023-04-02T11:08:23.143Z,96999.63
2023-04-02T11:11:04.903Z,97002.69
2023-04-02T11:13:41.738Z,97000.09
2023-04-02T11:16:08.619Z,96999.03
2023-04-02T11:18:38.978Z,97013.94
2023-04-02T11:21:28.387Z,97014.78
2023-04-02T11:24:00.863Z,97020.19
2023-04-02T11:26:38.656Z,97016.88
2023-04-02T11:29:15.138Z,96996.06
2023-04-02T11:31:43.166Z,97026.09
2023-04-02T11:34:43.231Z,97031.78
2023-04-02T11:37:29.576Z,97022.13
2023-04-02T11:39:59.457Z,97000.09
2023-04-02T11:42:31.970Z,97038.31
2023-04-02T11:45:23.186Z,97044.38
2023-04-02T11:48:02.193Z,97038.53
2023-04-02T11:50:37.697Z,97015.69
2023-04-02T11:53:11.070Z,97049.59
2023-04-02T11:55:39.977Z,97036.84
2023-04-02T11:58:33.262Z,97049.44
2023-04-02T12:01:08.032Z,97049.19
2023-04-02T12:04:16.957Z,97060.84
2023-04-02T12:06:47.381Z,97062.25
2023-04-02T12:09:20.268Z,97062.13
2023-04-02T12:11:48.130Z,97053.59
2023-04-02T12:14:42.014Z,97071.34
2023-04-02T12:17:32.470Z,97068.88
2023-04-02T12:20:04.369Z,97076.22
2023-04-02T12:22:33.856Z,97079.44
2023-04-02T12:25:31.708Z,97074.09
2023-04-02T12:28:10.655Z,97081.34
2023-04-02T12:30:38.905Z,97074.66
2023-04-02T12:33:37.666Z,97085.22
2023-04-02T12:36:09.240Z,97080.94
2023-04-02T12:38:45.855Z,97072.94
2023-04-02T12:41:30.365Z,97085.22
2023-04-02T12:44:02.641Z,97056.13
2023-04-02T12:46:36.274Z,97090.03
2023-04-02T12:49:08.660Z,97096.31
2023-04-02T12:51:39.148Z,97091.94
2023-04-02T12:54:06.430Z,97086.22
2023-04-02T12:56:33.239Z,97089.34
2023-04-02T12:59:01.548Z,97105.13
2023-04-02T13:01:31.822Z,97096.22
2023-04-02T13:04:01.534Z,97110.84
2023-04-02T13:06:30.714Z,97096.88
2023-04-02T13:08:59.111Z,97082.06
2023-04-02T13:11:42.219Z,97120.94
2023-04-02T13:14:20.030Z,97115.31
2023-04-02T13:16:47.814Z,97119.97
2023-04-02T13:19:17.274Z,97128.47
2023-04-02T13:21:46.125Z,97106.59
2023-04-02T13:24:30.601Z,97128.16
2023-04-02T13:27:03.954Z,97099.31
2023-04-02T13:29:34.492Z,97119.69
2023-04-02T13:32:03.433Z,97146.22
2023-04-02T13:34:31.048Z,97147.81
2023-04-02T13:36:58.535Z,97139.34
2023-04-02T13:39:26.238Z,97128.53
2023-04-02T13:41:57.613Z,97159.09
2023-04-02T13:44:32.757Z,97150.69
2023-04-02T13:47:00.784Z,97162.69
2023-04-02T13:49:28.290Z,97156.75
2023-04-02T13:51:59.814Z,97167.63
2023-04-02T13:54:37.566Z,97167.03
2023-04-02T13:57:04.419Z,97176.16
2023-04-02T13:59:31.583Z,97182.25
2023-04-02T14:02:05.771Z,97136.47
2023-04-02T14:04:38.503Z,97170.16
2023-04-02T14:07:11.551Z,97180.53
2023-04-02T14:10:01.279Z,97181.88
2023-04-02T14:12:44.909Z,97180.25
2023-04-02T14:16:09.038Z,97191.84
2023-04-02T14:18:56.579Z,97198.06
2023-04-02T14:21:47.845Z,97197.16
2023-04-02T14:25:06.462Z,97185.84
2023-04-02T14:27:36.978Z,97202.03
2023-04-02T14:30:22.533Z,97209.50
2023-04-02T14:33:13.876Z,97214.88
2023-04-02T14:35:46.818Z,97211.31
2023-04-02T14:38:24.918Z,97227.41
2023-04-02T14:41:04.630Z,97196.00
2023-04-02T14:43:45.265Z,97224.47
2023-04-02T14:46:13.900Z,97213.53
2023-04-02T14:48:54.476Z,97181.34
2023-04-02T14:51:47.513Z,97238.34
2023-04-02T14:54:26.329Z,97239.44
2023-04-02T14:56:57.664Z,97209.22
2023-04-02T15:00:13.568Z,97240.94
2023-04-02T15:02:48.033Z,97248.16
2023-04-02T15:05:20.548Z,97237.75
2023-04-02T15:08:27.518Z,97240.88
2023-04-02T15:11:10.566Z,97237.25
2023-04-02T15:13:43.198Z,97236.00
2023-04-02T15:16:16.604Z,97235.69
2023-04-02T15:18:46.499Z,97245.81
2023-04-02T15:21:29.665Z,97260.09
2023-04-02T15:24:22.545Z,97232.56
2023-04-02T15:26:58.139Z,97272.94
2023-04-02T15:29:34.416Z,97272.41
2023-04-02T15:32:25.132Z,97248.94
2023-04-02T15:35:35.784Z,97279.09
2023-04-02T15:38:36.676Z,97273.72
2023-04-02T15:41:15.619Z,97291.19
2023-04-02T15:44:01.952Z,97295.59
2023-04-02T15:46:38.284Z,97289.31
2023-04-02T15:49:33.720Z,97294.91
2023-04-02T15:52:26.985Z,97278.31
2023-04-02T15:55:18.974Z,97308.72
2023-04-02T15:57:55.001Z,97317.25
2023-04-02T16:00:26.866Z,97291.16
2023-04-02T16:03:06.657Z,97322.78
2023-04-02T16:05:39.450Z,97326.34
2023-04-02T16:08:27.441Z,97319.91
2023-04-02T16:10:54.220Z,97335.16
2023-04-02T16:13:23.639Z,97331.94
2023-04-02T16:16:00.258Z,97308.09
2023-04-02T16:18:59.526Z,97336.06
2023-04-02T16:21:50.672Z,97317.34
2023-04-02T16:24:17.383Z,97331.47
2023-04-02T16:26:54.540Z,97344.75
2023-04-02T16:30:00.572Z,97351.13
2023-04-02T16:32:58.854Z,97353.44
2023-04-02T16:35:44.137Z,97353.06
2023-04-02T16:38:18.302Z,97342.53
2023-04-02T16:41:08.923Z,97361.34
2023-04-02T16:44:13.887Z,97364.09
2023-04-02T16:47:04.778Z,97359.22
2023-04-02T16:49:47.949Z,97370.00
2023-04-02T16:52:47.125Z,97379.94
2023-04-02T16:55:47.098Z,97374.13
2023-04-02T16:58:26.013Z,97375.22
2023-04-02T17:01:08.805Z,97334.72
2023-04-02T17:03:51.027Z,97386.66
2023-04-02T17:06:44.503Z,97385.22
2023-04-02T17:09:11.148Z,97397.66
2023-04-02T17:11:46.885Z,97382.69
2023-04-02T17:14:34.847Z,97404.34
2023-04-02T17:17:04.036Z,97395.81
2023-04-02T17:19:32.995Z,97406.03
2023-04-02T17:22:03.299Z,97403.53
2023-04-02T17:24:41.596Z,97414.22
2023-04-02T17:27:37.952Z,97403.75
2023-04-02T17:30:15.712Z,97411.94
2023-04-02T17:32:43.281Z,97389.19
2023-04-02T17:35:29.199Z,97425.09
2023-04-02T17:37:56.813Z,97420.31
2023-04-02T17:40:39.636Z,97417.88
2023-04-02T17:43:46.273Z,97435.88
2023-04-02T17:46:26.256Z,97430.09
2023-04-02T17:49:08.351Z,97436.59
2023-04-02T17:52:05.975Z,97443.38
2023-04-02T17:54:53.293Z,97440.75
2023-04-02T17:57:40.796Z,97441.72
2023-04-02T18:00:19.478Z,97444.09
2023-04-02T18:03:01.906Z,97420.75
2023-04-02T18:05:43.268Z,97451.22
2023-04-02T18:08:37.289Z,97456.03
2023-04-02T18:11:19.345Z,97453.63
2023-04-02T18:14:31.758Z,97453.88
2023-04-02T18:17:10.221Z,97461.44
2023-04-02T18:19:52.044Z,97460.91
2023-04-02T18:22:42.186Z,97468.16
2023-04-02T18:25:24.897Z,97469.75
2023-04-02T18:28:31.197Z,97469.47
2023-04-02T18:31:26.605Z,97471.94
2023-04-02T18:34:18.760Z,97478.09
2023-04-02T18:37:11.278Z,97455.09
2023-04-02T18:39:47.656Z,97477.03
2023-04-02T18:42:34.563Z,97494.22
2023-04-02T18:45:09.818Z,97485.63
2023-04-02T18:48:18.507Z,97487.81
2023-04-02T18:50:47.268Z,97499.69
2023-04-02T18:53:19.411Z,97498.66
2023-04-02T18:55:55.328Z,97484.72
2023-04-02T18:59:03.774Z,97467.28
2023-04-02T19:01:39.507Z,97507.00
2023-04-02T19:04:10.196Z,97476.78
2023-04-02T19:06:43.537Z,97506.28
2023-04-02T19:09:24.910Z,97505.78
2023-04-02T19:11:53.307Z,97456.69
2023-04-02T19:14:21.641Z,97492.81
2023-04-02T19:17:00.219Z,97516.75
2023-04-02T19:19:28.162Z,97468.81
2023-04-02T19:22:08.226Z,97525.19
2023-04-02T19:24:58.156Z,97521.94
2023-04-02T19:27:41.889Z,97524.94
2023-04-02T19:30:23.427Z,97523.56
2023-04-02T19:33:08.408Z,97528.97
2023-04-02T19:35:54.172Z,97511.06
2023-04-02T19:38:43.772Z,97532.50
2023-04-02T19:41:16.336Z,97530.06
2023-04-02T19:43:43.465Z,97496.28
2023-04-02T19:46:10.257Z,97521.00
2023-04-02T19:48:51.562Z,97537.16
2023-04-02T19:51:18.229Z,97511.47
2023-04-02T19:53:44.921Z,97537.28
2023-04-02T19:56:11.626Z,97545.56
2023-04-02T19:58:38.304Z,97545.03
2023-04-02T20:01:05.138Z,97542.13
2023-04-02T20:03:32.671Z,97543.75
2023-04-02T20:05:59.916Z,97551.31
2023-04-02T20:08:27.669Z,97524.75
2023-04-02T20:10:55.033Z,97532.50
2023-04-02T20:13:21.738Z,97528.75
2023-04-02T20:15:49.309Z,97512.91
2023-04-02T20:18:16.134Z,97517.22
2023-04-02T20:20:48.481Z,97540.03
2023-04-02T20:23:16.650Z,97520.44
2023-04-02T20:25:47.863Z,97528.97
2023-04-02T20:28:14.649Z,97569.25
2023-04-02T20:30:41.378Z,97559.34
2023-04-02T20:33:08.562Z,97572.72
2023-04-02T20:35:35.784Z,97550.44
2023-04-02T20:38:06.556Z,97570.59
2023-04-02T20:40:33.910Z,97574.34
2023-04-02T20:43:00.792Z,97559.13
2023-04-02T20:45:29.365Z,97566.09
2023-04-02T20:47:56.890Z,97584.38
2023-04-02T20:50:24.382Z,97572.03
2023-04-02T20:52:52.010Z,97571.53
2023-04-02T20:55:19.826Z,97573.38
2023-04-02T20:57:47.034Z,97572.31
2023-04-02T21:00:14.813Z,97571.22
2023-04-02T21:02:44.215Z,97578.72
2023-04-02T21:05:11.156Z,97581.16
2023-04-02T21:07:37.943Z,97573.63
2023-04-02T21:10:04.902Z,97577.69
2023-04-02T21:12:31.796Z,97595.44
2023-04-02T21:15:01.715Z,97586.38
2023-04-02T21:17:29.484Z,97574.00
2023-04-02T21:19:56.275Z,97594.94
2023-04-02T21:22:23.154Z,97600.63
2023-04-02T21:24:49.852Z,97594.19
2023-04-02T21:27:16.966Z,97592.28
2023-04-02T21:29:44.677Z,97606.00
2023-04-02T21:32:20.777Z,97586.41
2023-04-02T21:34:48.450Z,97605.50
2023-04-02T21:37:15.135Z,97608.44
2023-04-02T21:39:41.782Z,97609.50
2023-04-02T21:42:08.534Z,97606.84
2023-04-02T21:44:35.136Z,97606.03
2023-04-02T21:47:01.831Z,97614.88
2023-04-02T21:49:30.017Z,97613.78
2023-04-02T21:51:56.789Z,97614.88
2023-04-02T21:54:23.741Z,97612.19
2023-04-02T21:56:50.857Z,97622.41
2023-04-02T21:59:18.272Z,97621.88
2023-04-02T22:01:50.707Z,97613.53
2023-04-02T22:04:25.842Z,97614.09
2023-04-02T22:06:53.697Z,97622.44
2023-04-02T22:09:23.703Z,97635.56
2023-04-02T22:11:54.712Z,97606.53
2023-04-02T22:14:21.845Z,97621.88
2023-04-02T22:16:48.675Z,97627.25
2023-04-02T22:19:16.835Z,97640.97
2023-04-02T22:21:43.753Z,97627.25
2023-04-02T22:24:14.027Z,97639.88
2023-04-02T22:26:41.585Z,97647.38
2023-04-02T22:29:08.617Z,97645.50
2023-04-02T22:31:36.951Z,97652.50
2023-04-02T22:34:06.173Z,97655.44
2023-04-02T22:36:33.703Z,97640.66
2023-04-02T22:39:01.327Z,97618.66
2023-04-02T22:41:29.607Z,97656.00
2023-04-02T22:43:59.147Z,97656.00
2023-04-02T22:46:27.325Z,97651.41
2023-04-02T22:48:56.000Z,97646.84
2023-04-02T22:51:24.384Z,97637.44
2023-04-02T22:53:53.887Z,97619.16
2023-04-02T22:56:23.209Z,97640.66
2023-04-02T22:58:50.500Z,97653.84
2023-04-02T23:01:29.577Z,97651.97
2023-04-02T23:03:57.021Z,97662.16
2023-04-02T23:06:24.757Z,97664.56
2023-04-02T23:08:52.490Z,97657.84
2023-04-02T23:11:27.964Z,97664.84
2023-04-02T23:13:57.853Z,97659.19
2023-04-02T23:16:27.296Z,97658.41
2023-04-02T23:18:55.926Z,97665.94
2023-04-02T23:21:23.417Z,97632.59
2023-04-02T23:23:51.227Z,97671.03
2023-04-02T23:26:21.962Z,97669.41
2023-04-02T23:28:49.937Z,97641.75
2023-04-02T23:31:22.920Z,97661.34
2023-04-02T23:33:51.572Z,97664.28
2023-04-02T23:36:26.593Z,97670.75
2023-04-02T23:38:55.760Z,97665.38
2023-04-02T23:41:27.100Z,97662.41
2023-04-02T23:43:55.035Z,97666.16
2023-04-02T23:46:23.500Z,97677.16
2023-04-02T23:48:51.475Z,97647.06
2023-04-02T23:51:18.790Z,97676.34
2023-04-02T23:53:45.555Z,97657.53
2023-04-02T23:56:12.474Z,97645.44
2023-04-02T23:58:39.148Z,97659.66
